sensor_id;sensor_type;location;lat;lon;timestamp;temperature;humidity
51878;SHT31;37911;51.526;11.536;2023-12-04T00:00:04;-3.73;88.04
51878;SHT31;37911;51.526;11.536;2023-12-04T00:03:13;-3.66;87.95
51878;SHT31;37911;51.526;11.536;2023-12-04T00:06:16;-3.43;87.75
51878;SHT31;37911;51.526;11.536;2023-12-04T00:09:22;-3.56;87.67
51878;SHT31;37911;51.526;11.536;2023-12-04T00:12:25;-3.63;87.50
51878;SHT31;37911;51.526;11.536;2023-12-04T00:15:28;-3.60;87.52
51878;SHT31;37911;51.526;11.536;2023-12-04T00:18:32;-3.63;87.44
51878;SHT31;37911;51.526;11.536;2023-12-04T00:21:35;-3.56;87.71
51878;SHT31;37911;51.526;11.536;2023-12-04T00:24:41;-3.47;87.92
51878;SHT31;37911;51.526;11.536;2023-12-04T00:27:44;-3.39;87.79
51878;SHT31;37911;51.526;11.536;2023-12-04T00:30:47;-3.33;87.69
51878;SHT31;37911;51.526;11.536;2023-12-04T00:33:51;-3.33;87.58
51878;SHT31;37911;51.526;11.536;2023-12-04T00:36:54;-3.24;87.57
51878;SHT31;37911;51.526;11.536;2023-12-04T00:40:00;-3.21;87.06
51878;SHT31;37911;51.526;11.536;2023-12-04T00:43:04;-3.20;86.83
51878;SHT31;37911;51.526;11.536;2023-12-04T00:46:07;-3.16;86.92
51878;SHT31;37911;51.526;11.536;2023-12-04T00:49:11;-3.13;86.83
51878;SHT31;37911;51.526;11.536;2023-12-04T00:52:14;-3.03;86.69
51878;SHT31;37911;51.526;11.536;2023-12-04T00:55:20;-3.15;86.40
51878;SHT31;37911;51.526;11.536;2023-12-04T00:58:23;-3.13;86.59
51878;SHT31;37911;51.526;11.536;2023-12-04T01:01:27;-3.09;86.38
51878;SHT31;37911;51.526;11.536;2023-12-04T01:04:30;-3.05;86.18
51878;SHT31;37911;51.526;11.536;2023-12-04T01:07:34;-3.05;86.16
51878;SHT31;37911;51.526;11.536;2023-12-04T01:10:41;-3.06;86.20
51878;SHT31;37911;51.526;11.536;2023-12-04T01:13:44;-3.06;86.01
51878;SHT31;37911;51.526;11.536;2023-12-04T01:16:47;-2.99;85.65
51878;SHT31;37911;51.526;11.536;2023-12-04T01:19:50;-3.02;85.39
51878;SHT31;37911;51.526;11.536;2023-12-04T01:22:54;-2.99;85.56
51878;SHT31;37911;51.526;11.536;2023-12-04T01:25:59;-3.02;85.51
51878;SHT31;37911;51.526;11.536;2023-12-04T01:29:03;-3.06;85.19
51878;SHT31;37911;51.526;11.536;2023-12-04T01:32:06;-3.15;85.79
51878;SHT31;37911;51.526;11.536;2023-12-04T01:35:09;-3.05;85.92
51878;SHT31;37911;51.526;11.536;2023-12-04T01:38:13;-3.03;85.44
51878;SHT31;37911;51.526;11.536;2023-12-04T01:41:18;-3.02;85.87
51878;SHT31;37911;51.526;11.536;2023-12-04T01:44:22;-2.91;85.99
51878;SHT31;37911;51.526;11.536;2023-12-04T01:47:25;-2.92;86.16
51878;SHT31;37911;51.526;11.536;2023-12-04T01:50:28;-2.93;86.11
51878;SHT31;37911;51.526;11.536;2023-12-04T01:53:32;-2.95;86.56
51878;SHT31;37911;51.526;11.536;2023-12-04T01:56:38;-3.03;86.83
51878;SHT31;37911;51.526;11.536;2023-12-04T01:59:42;-3.09;86.48
51878;SHT31;37911;51.526;11.536;2023-12-04T02:02:46;-3.29;86.77
51878;SHT31;37911;51.526;11.536;2023-12-04T02:05:50;-3.21;86.80
51878;SHT31;37911;51.526;11.536;2023-12-04T02:08:54;-3.30;87.05
51878;SHT31;37911;51.526;11.536;2023-12-04T02:12:00;-3.26;87.13
51878;SHT31;37911;51.526;11.536;2023-12-04T02:15:04;-3.23;86.92
51878;SHT31;37911;51.526;11.536;2023-12-04T02:18:08;-3.16;86.54
51878;SHT31;37911;51.526;11.536;2023-12-04T02:21:12;-3.32;87.01
51878;SHT31;37911;51.526;11.536;2023-12-04T02:24:18;-3.33;87.38
51878;SHT31;37911;51.526;11.536;2023-12-04T02:27:25;-3.27;87.45
51878;SHT31;37911;51.526;11.536;2023-12-04T02:30:30;-3.19;87.40
51878;SHT31;37911;51.526;11.536;2023-12-04T02:33:36;-3.29;87.28
51878;SHT31;37911;51.526;11.536;2023-12-04T02:36:40;-3.16;87.04
51878;SHT31;37911;51.526;11.536;2023-12-04T02:39:47;-3.12;86.92
51878;SHT31;37911;51.526;11.536;2023-12-04T02:42:53;-3.13;86.68
51878;SHT31;37911;51.526;11.536;2023-12-04T02:45:57;-2.97;86.50
51878;SHT31;37911;51.526;11.536;2023-12-04T02:49:00;-3.09;86.25
51878;SHT31;37911;51.526;11.536;2023-12-04T02:52:03;-3.10;86.50
51878;SHT31;37911;51.526;11.536;2023-12-04T02:55:09;-3.21;86.90
51878;SHT31;37911;51.526;11.536;2023-12-04T02:58:13;-3.17;87.12
51878;SHT31;37911;51.526;11.536;2023-12-04T03:01:16;-3.19;87.15
51878;SHT31;37911;51.526;11.536;2023-12-04T03:04:19;-3.23;87.32
51878;SHT31;37911;51.526;11.536;2023-12-04T03:07:23;-3.17;87.33
51878;SHT31;37911;51.526;11.536;2023-12-04T03:10:29;-3.12;87.51
51878;SHT31;37911;51.526;11.536;2023-12-04T03:13:33;-3.13;87.42
51878;SHT31;37911;51.526;11.536;2023-12-04T03:16:37;-3.10;87.36
51878;SHT31;37911;51.526;11.536;2023-12-04T03:19:40;-3.10;87.43
51878;SHT31;37911;51.526;11.536;2023-12-04T03:22:43;-3.19;87.36
51878;SHT31;37911;51.526;11.536;2023-12-04T03:25:49;-3.07;87.38
51878;SHT31;37911;51.526;11.536;2023-12-04T03:28:52;-2.91;87.24
51878;SHT31;37911;51.526;11.536;2023-12-04T03:31:55;-3.05;87.21
51878;SHT31;37911;51.526;11.536;2023-12-04T03:34:59;-3.06;87.10
51878;SHT31;37911;51.526;11.536;2023-12-04T03:38:03;-2.97;86.82
51878;SHT31;37911;51.526;11.536;2023-12-04T03:41:15;-3.06;87.10
51878;SHT31;37911;51.526;11.536;2023-12-04T03:44:18;-2.95;87.06
51878;SHT31;37911;51.526;11.536;2023-12-04T03:47:22;-2.92;87.32
51878;SHT31;37911;51.526;11.536;2023-12-04T03:50:26;-3.09;87.36
51878;SHT31;37911;51.526;11.536;2023-12-04T03:53:29;-2.95;87.14
51878;SHT31;37911;51.526;11.536;2023-12-04T03:56:35;-2.88;86.71
51878;SHT31;37911;51.526;11.536;2023-12-04T03:59:38;-2.82;86.58
51878;SHT31;37911;51.526;11.536;2023-12-04T04:02:42;-2.96;86.55
51878;SHT31;37911;51.526;11.536;2023-12-04T04:05:45;-2.83;86.32
51878;SHT31;37911;51.526;11.536;2023-12-04T04:08:49;-2.79;86.09
51878;SHT31;37911;51.526;11.536;2023-12-04T04:11:55;-2.91;86.10
51878;SHT31;37911;51.526;11.536;2023-12-04T04:14:58;-2.86;86.13
51878;SHT31;37911;51.526;11.536;2023-12-04T04:18:02;-2.82;85.99
51878;SHT31;37911;51.526;11.536;2023-12-04T04:21:05;-2.82;86.06
51878;SHT31;37911;51.526;11.536;2023-12-04T04:24:09;-2.85;86.21
51878;SHT31;37911;51.526;11.536;2023-12-04T04:27:15;-2.78;86.56
51878;SHT31;37911;51.526;11.536;2023-12-04T04:30:18;-2.92;86.59
51878;SHT31;37911;51.526;11.536;2023-12-04T04:33:21;-2.79;86.52
51878;SHT31;37911;51.526;11.536;2023-12-04T04:36:25;-2.86;86.35
51878;SHT31;37911;51.526;11.536;2023-12-04T04:39:28;-2.82;86.34
51878;SHT31;37911;51.526;11.536;2023-12-04T04:42:34;-2.78;86.58
51878;SHT31;37911;51.526;11.536;2023-12-04T04:45:38;-2.76;86.90
51878;SHT31;37911;51.526;11.536;2023-12-04T04:48:41;-2.76;86.99
51878;SHT31;37911;51.526;11.536;2023-12-04T04:51:44;-2.64;86.77
51878;SHT31;37911;51.526;11.536;2023-12-04T04:54:48;-2.61;86.71
51878;SHT31;37911;51.526;11.536;2023-12-04T04:57:54;-2.69;86.45
51878;SHT31;37911;51.526;11.536;2023-12-04T05:00:57;-2.69;86.58
51878;SHT31;37911;51.526;11.536;2023-12-04T05:04:01;-2.72;86.84
51878;SHT31;37911;51.526;11.536;2023-12-04T05:07:05;-2.73;86.87
51878;SHT31;37911;51.526;11.536;2023-12-04T05:10:09;-2.69;86.86
51878;SHT31;37911;51.526;11.536;2023-12-04T05:13:15;-2.73;86.98
51878;SHT31;37911;51.526;11.536;2023-12-04T05:16:18;-2.65;86.95
51878;SHT31;37911;51.526;11.536;2023-12-04T05:19:21;-2.71;86.74
51878;SHT31;37911;51.526;11.536;2023-12-04T05:22:25;-2.79;86.98
51878;SHT31;37911;51.526;11.536;2023-12-04T05:25:28;-2.76;86.94
51878;SHT31;37911;51.526;11.536;2023-12-04T05:28:34;-2.83;87.19
51878;SHT31;37911;51.526;11.536;2023-12-04T05:31:37;-2.78;87.28
51878;SHT31;37911;51.526;11.536;2023-12-04T05:34:41;-2.76;86.98
51878;SHT31;37911;51.526;11.536;2023-12-04T05:37:45;-2.75;86.90
51878;SHT31;37911;51.526;11.536;2023-12-04T05:40:48;-2.78;86.96
51878;SHT31;37911;51.526;11.536;2023-12-04T05:43:54;-2.81;86.85
51878;SHT31;37911;51.526;11.536;2023-12-04T05:46:58;-2.91;86.92
51878;SHT31;37911;51.526;11.536;2023-12-04T05:50:01;-2.82;86.72
51878;SHT31;37911;51.526;11.536;2023-12-04T05:53:06;-2.82;86.55
51878;SHT31;37911;51.526;11.536;2023-12-04T05:56:10;-2.81;86.33
51878;SHT31;37911;51.526;11.536;2023-12-04T05:59:16;-2.71;86.13
51878;SHT31;37911;51.526;11.536;2023-12-04T06:02:19;-2.75;85.79
51878;SHT31;37911;51.526;11.536;2023-12-04T06:05:22;-2.72;85.83
51878;SHT31;37911;51.526;11.536;2023-12-04T06:08:26;-2.76;86.01
51878;SHT31;37911;51.526;11.536;2023-12-04T06:11:29;-2.64;86.04
51878;SHT31;37911;51.526;11.536;2023-12-04T06:14:35;-2.61;85.90
51878;SHT31;37911;51.526;11.536;2023-12-04T06:17:39;-2.75;86.01
51878;SHT31;37911;51.526;11.536;2023-12-04T06:20:42;-2.73;86.36
51878;SHT31;37911;51.526;11.536;2023-12-04T06:23:46;-2.65;86.18
51878;SHT31;37911;51.526;11.536;2023-12-04T06:26:51;-2.58;86.00
51878;SHT31;37911;51.526;11.536;2023-12-04T06:29:57;-2.58;85.72
51878;SHT31;37911;51.526;11.536;2023-12-04T06:33:01;-2.62;84.91
51878;SHT31;37911;51.526;11.536;2023-12-04T06:36:06;-2.58;84.91
51878;SHT31;37911;51.526;11.536;2023-12-04T06:39:11;-2.64;84.87
51878;SHT31;37911;51.526;11.536;2023-12-04T06:42:16;-2.61;85.02
51878;SHT31;37911;51.526;11.536;2023-12-04T06:45:22;-2.60;85.01
51878;SHT31;37911;51.526;11.536;2023-12-04T06:48:27;-2.48;85.04
51878;SHT31;37911;51.526;11.536;2023-12-04T06:51:31;-2.51;84.94
51878;SHT31;37911;51.526;11.536;2023-12-04T06:54:34;-2.57;84.47
51878;SHT31;37911;51.526;11.536;2023-12-04T06:57:37;-2.65;84.80
51878;SHT31;37911;51.526;11.536;2023-12-04T07:00:43;-2.69;84.49
51878;SHT31;37911;51.526;11.536;2023-12-04T07:03:47;-2.65;84.51
51878;SHT31;37911;51.526;11.536;2023-12-04T07:06:50;-2.65;84.86
51878;SHT31;37911;51.526;11.536;2023-12-04T07:09:53;-2.62;84.30
51878;SHT31;37911;51.526;11.536;2023-12-04T07:12:56;-2.68;84.40
51878;SHT31;37911;51.526;11.536;2023-12-04T07:16:03;-2.69;84.57
51878;SHT31;37911;51.526;11.536;2023-12-04T07:19:07;-2.61;84.13
51878;SHT31;37911;51.526;11.536;2023-12-04T07:22:10;-2.61;84.24
51878;SHT31;37911;51.526;11.536;2023-12-04T07:25:13;-2.62;83.92
51878;SHT31;37911;51.526;11.536;2023-12-04T07:28:17;-2.62;83.61
51878;SHT31;37911;51.526;11.536;2023-12-04T07:31:22;-2.64;84.09
51878;SHT31;37911;51.526;11.536;2023-12-04T07:34:26;-2.64;83.93
51878;SHT31;37911;51.526;11.536;2023-12-04T07:37:29;-2.62;83.73
51878;SHT31;37911;51.526;11.536;2023-12-04T07:40:33;-2.57;83.89
51878;SHT31;37911;51.526;11.536;2023-12-04T07:43:36;-2.61;83.58
51878;SHT31;37911;51.526;11.536;2023-12-04T07:46:42;-2.51;84.18
51878;SHT31;37911;51.526;11.536;2023-12-04T07:49:46;-2.42;83.85
51878;SHT31;37911;51.526;11.536;2023-12-04T07:52:50;-2.47;83.87
51878;SHT31;37911;51.526;11.536;2023-12-04T07:55:54;-2.44;83.73
51878;SHT31;37911;51.526;11.536;2023-12-04T07:58:57;-2.50;83.45
51878;SHT31;37911;51.526;11.536;2023-12-04T08:02:03;-2.54;83.49
51878;SHT31;37911;51.526;11.536;2023-12-04T08:05:06;-2.42;83.56
51878;SHT31;37911;51.526;11.536;2023-12-04T08:08:09;-2.42;83.59
51878;SHT31;37911;51.526;11.536;2023-12-04T08:11:13;-2.36;83.83
51878;SHT31;37911;51.526;11.536;2023-12-04T08:14:16;-2.31;83.24
51878;SHT31;37911;51.526;11.536;2023-12-04T08:17:22;-2.28;83.61
51878;SHT31;37911;51.526;11.536;2023-12-04T08:20:25;-2.30;83.23
51878;SHT31;37911;51.526;11.536;2023-12-04T08:23:28;-2.40;83.11
51878;SHT31;37911;51.526;11.536;2023-12-04T08:26:31;-2.40;83.41
51878;SHT31;37911;51.526;11.536;2023-12-04T08:29:35;-2.37;82.67
51878;SHT31;37911;51.526;11.536;2023-12-04T08:32:41;-2.27;82.67
51878;SHT31;37911;51.526;11.536;2023-12-04T08:35:44;-2.33;82.97
51878;SHT31;37911;51.526;11.536;2023-12-04T08:38:47;-2.26;83.17
51878;SHT31;37911;51.526;11.536;2023-12-04T08:41:51;-2.15;82.67
51878;SHT31;37911;51.526;11.536;2023-12-04T08:44:55;-2.04;82.99
51878;SHT31;37911;51.526;11.536;2023-12-04T08:48:00;-2.08;82.60
51878;SHT31;37911;51.526;11.536;2023-12-04T08:51:04;-2.04;81.90
51878;SHT31;37911;51.526;11.536;2023-12-04T08:54:08;-1.97;81.78
51878;SHT31;37911;51.526;11.536;2023-12-04T08:57:11;-1.93;82.20
51878;SHT31;37911;51.526;11.536;2023-12-04T09:00:15;-1.90;82.26
51878;SHT31;37911;51.526;11.536;2023-12-04T09:03:21;-1.75;82.31
51878;SHT31;37911;51.526;11.536;2023-12-04T09:06:25;-1.70;82.05
51878;SHT31;37911;51.526;11.536;2023-12-04T09:09:28;-1.63;81.70
51878;SHT31;37911;51.526;11.536;2023-12-04T09:12:32;-1.63;81.36
51878;SHT31;37911;51.526;11.536;2023-12-04T09:15:38;-1.67;81.90
51878;SHT31;37911;51.526;11.536;2023-12-04T09:18:43;-1.62;81.63
51878;SHT31;37911;51.526;11.536;2023-12-04T09:21:47;-1.60;81.84
51878;SHT31;37911;51.526;11.536;2023-12-04T09:24:50;-1.56;81.64
51878;SHT31;37911;51.526;11.536;2023-12-04T09:27:53;-1.49;81.62
51878;SHT31;37911;51.526;11.536;2023-12-04T09:30:57;-1.45;80.80
51878;SHT31;37911;51.526;11.536;2023-12-04T09:34:03;-1.36;80.29
51878;SHT31;37911;51.526;11.536;2023-12-04T09:37:06;-1.32;80.87
51878;SHT31;37911;51.526;11.536;2023-12-04T09:40:10;-1.21;80.92
51878;SHT31;37911;51.526;11.536;2023-12-04T09:43:14;-1.02;80.45
51878;SHT31;37911;51.526;11.536;2023-12-04T09:46:18;-1.08;79.45
51878;SHT31;37911;51.526;11.536;2023-12-04T09:49:26;-0.94;79.75
51878;SHT31;37911;51.526;11.536;2023-12-04T09:52:31;-0.81;79.10
51878;SHT31;37911;51.526;11.536;2023-12-04T09:55:37;-0.77;79.43
51878;SHT31;37911;51.526;11.536;2023-12-04T09:58:41;-0.83;79.36
51878;SHT31;37911;51.526;11.536;2023-12-04T10:01:45;-0.76;78.94
51878;SHT31;37911;51.526;11.536;2023-12-04T10:04:52;-0.71;79.44
51878;SHT31;37911;51.526;11.536;2023-12-04T10:07:55;-0.74;80.00
51878;SHT31;37911;51.526;11.536;2023-12-04T10:10:59;-0.77;80.23
51878;SHT31;37911;51.526;11.536;2023-12-04T10:14:02;-0.70;80.14
51878;SHT31;37911;51.526;11.536;2023-12-04T10:17:15;-0.76;78.79
51878;SHT31;37911;51.526;11.536;2023-12-04T10:20:21;-0.73;77.80
51878;SHT31;37911;51.526;11.536;2023-12-04T10:23:36;-0.77;78.38
51878;SHT31;37911;51.526;11.536;2023-12-04T10:26:49;-0.74;77.72
51878;SHT31;37911;51.526;11.536;2023-12-04T10:29:53;-0.78;78.21
51878;SHT31;37911;51.526;11.536;2023-12-04T10:32:59;-0.66;78.02
51878;SHT31;37911;51.526;11.536;2023-12-04T10:36:11;-0.66;77.80
51878;SHT31;37911;51.526;11.536;2023-12-04T10:39:14;-0.78;78.45
51878;SHT31;37911;51.526;11.536;2023-12-04T10:42:28;-0.64;78.23
51878;SHT31;37911;51.526;11.536;2023-12-04T10:45:31;-0.64;78.26
51878;SHT31;37911;51.526;11.536;2023-12-04T10:48:35;-0.71;78.53
51878;SHT31;37911;51.526;11.536;2023-12-04T10:51:41;-0.68;78.86
51878;SHT31;37911;51.526;11.536;2023-12-04T10:54:45;-0.70;77.96
51878;SHT31;37911;51.526;11.536;2023-12-04T10:57:49;-0.67;77.98
51878;SHT31;37911;51.526;11.536;2023-12-04T11:00:53;-0.66;78.57
51878;SHT31;37911;51.526;11.536;2023-12-04T11:04:02;-0.57;78.38
51878;SHT31;37911;51.526;11.536;2023-12-04T11:07:10;-0.56;77.31
51878;SHT31;37911;51.526;11.536;2023-12-04T11:10:15;-0.50;77.56
51878;SHT31;37911;51.526;11.536;2023-12-04T11:13:22;-0.46;76.18
51878;SHT31;37911;51.526;11.536;2023-12-04T11:16:29;-0.56;76.66
51878;SHT31;37911;51.526;11.536;2023-12-04T11:19:41;-0.63;75.69
51878;SHT31;37911;51.526;11.536;2023-12-04T11:22:49;-0.64;77.08
51878;SHT31;37911;51.526;11.536;2023-12-04T11:25:53;-0.66;76.88
51878;SHT31;37911;51.526;11.536;2023-12-04T11:28:57;-0.66;76.93
51878;SHT31;37911;51.526;11.536;2023-12-04T11:32:05;-0.76;76.52
51878;SHT31;37911;51.526;11.536;2023-12-04T11:35:12;-0.73;77.15
51878;SHT31;37911;51.526;11.536;2023-12-04T11:38:20;-0.76;77.55
51878;SHT31;37911;51.526;11.536;2023-12-04T11:41:24;-0.70;76.96
51878;SHT31;37911;51.526;11.536;2023-12-04T11:44:28;-0.63;77.70
51878;SHT31;37911;51.526;11.536;2023-12-04T11:47:48;-0.67;75.86
51878;SHT31;37911;51.526;11.536;2023-12-04T11:50:51;-0.71;76.16
51878;SHT31;37911;51.526;11.536;2023-12-04T11:53:57;-0.64;76.72
51878;SHT31;37911;51.526;11.536;2023-12-04T11:57:20;-0.60;77.10
51878;SHT31;37911;51.526;11.536;2023-12-04T12:00:26;-0.61;77.38
51878;SHT31;37911;51.526;11.536;2023-12-04T12:03:29;-0.70;76.06
51878;SHT31;37911;51.526;11.536;2023-12-04T12:06:33;-0.70;76.52
51878;SHT31;37911;51.526;11.536;2023-12-04T12:09:45;-0.76;75.95
51878;SHT31;37911;51.526;11.536;2023-12-04T12:13:03;-0.78;76.49
51878;SHT31;37911;51.526;11.536;2023-12-04T12:16:17;-0.84;76.73
51878;SHT31;37911;51.526;11.536;2023-12-04T12:19:21;-0.77;77.61
51878;SHT31;37911;51.526;11.536;2023-12-04T12:22:24;-0.85;77.92
51878;SHT31;37911;51.526;11.536;2023-12-04T12:25:30;-0.78;78.81
51878;SHT31;37911;51.526;11.536;2023-12-04T12:28:36;-0.78;79.42
51878;SHT31;37911;51.526;11.536;2023-12-04T12:31:39;-0.87;78.72
51878;SHT31;37911;51.526;11.536;2023-12-04T12:34:42;-0.87;79.53
51878;SHT31;37911;51.526;11.536;2023-12-04T12:37:46;-0.83;79.32
51878;SHT31;37911;51.526;11.536;2023-12-04T12:40:52;-0.87;80.10
51878;SHT31;37911;51.526;11.536;2023-12-04T12:43:55;-0.84;80.31
51878;SHT31;37911;51.526;11.536;2023-12-04T12:47:02;-0.85;79.94
51878;SHT31;37911;51.526;11.536;2023-12-04T12:50:08;-0.84;81.01
51878;SHT31;37911;51.526;11.536;2023-12-04T12:53:13;-0.87;81.15
51878;SHT31;37911;51.526;11.536;2023-12-04T12:56:19;-0.90;81.68
51878;SHT31;37911;51.526;11.536;2023-12-04T12:59:23;-0.78;81.63
51878;SHT31;37911;51.526;11.536;2023-12-04T13:02:26;-0.84;81.80
51878;SHT31;37911;51.526;11.536;2023-12-04T13:05:30;-0.78;81.50
51878;SHT31;37911;51.526;11.536;2023-12-04T13:08:33;-0.83;80.84
51878;SHT31;37911;51.526;11.536;2023-12-04T13:11:40;-0.84;80.96
51878;SHT31;37911;51.526;11.536;2023-12-04T13:14:43;-0.80;81.28
51878;SHT31;37911;51.526;11.536;2023-12-04T13:17:47;-0.84;81.39
51878;SHT31;37911;51.526;11.536;2023-12-04T13:20:50;-0.71;81.10
51878;SHT31;37911;51.526;11.536;2023-12-04T13:23:53;-0.78;80.94
51878;SHT31;37911;51.526;11.536;2023-12-04T13:26:59;-0.74;81.52
51878;SHT31;37911;51.526;11.536;2023-12-04T13:30:04;-0.76;80.80
51878;SHT31;37911;51.526;11.536;2023-12-04T13:33:08;-0.77;80.79
51878;SHT31;37911;51.526;11.536;2023-12-04T13:36:12;-0.71;80.84
51878;SHT31;37911;51.526;11.536;2023-12-04T13:39:15;-0.78;81.43
51878;SHT31;37911;51.526;11.536;2023-12-04T13:42:30;-0.81;81.08
51878;SHT31;37911;51.526;11.536;2023-12-04T13:45:46;-0.81;81.27
51878;SHT31;37911;51.526;11.536;2023-12-04T13:48:49;-0.81;81.44
51878;SHT31;37911;51.526;11.536;2023-12-04T13:51:52;-0.83;80.96
51878;SHT31;37911;51.526;11.536;2023-12-04T13:54:56;-0.84;81.71
51878;SHT31;37911;51.526;11.536;2023-12-04T13:58:02;-0.85;82.06
51878;SHT31;37911;51.526;11.536;2023-12-04T14:01:11;-0.85;82.02
51878;SHT31;37911;51.526;11.536;2023-12-04T14:04:22;-0.80;81.48
51878;SHT31;37911;51.526;11.536;2023-12-04T14:07:26;-0.87;81.25
51878;SHT31;37911;51.526;11.536;2023-12-04T14:10:29;-0.91;81.20
51878;SHT31;37911;51.526;11.536;2023-12-04T14:13:35;-0.94;81.20
51878;SHT31;37911;51.526;11.536;2023-12-04T14:16:39;-0.88;82.19
51878;SHT31;37911;51.526;11.536;2023-12-04T14:19:46;-0.91;81.83
51878;SHT31;37911;51.526;11.536;2023-12-04T14:22:49;-0.95;81.63
51878;SHT31;37911;51.526;11.536;2023-12-04T14:25:52;-0.91;81.23
51878;SHT31;37911;51.526;11.536;2023-12-04T14:28:58;-0.84;81.47
51878;SHT31;37911;51.526;11.536;2023-12-04T14:32:04;-0.84;81.78
51878;SHT31;37911;51.526;11.536;2023-12-04T14:35:08;-0.68;81.30
51878;SHT31;37911;51.526;11.536;2023-12-04T14:38:11;-0.81;80.42
51878;SHT31;37911;51.526;11.536;2023-12-04T14:41:15;-0.84;80.79
51878;SHT31;37911;51.526;11.536;2023-12-04T14:44:21;-0.76;81.04
51878;SHT31;37911;51.526;11.536;2023-12-04T14:47:24;-0.87;81.14
51878;SHT31;37911;51.526;11.536;2023-12-04T14:50:27;-0.88;81.48
51878;SHT31;37911;51.526;11.536;2023-12-04T14:53:31;-0.87;81.21
51878;SHT31;37911;51.526;11.536;2023-12-04T14:56:44;-0.94;81.36
51878;SHT31;37911;51.526;11.536;2023-12-04T15:00:24;-0.84;81.55
51878;SHT31;37911;51.526;11.536;2023-12-04T15:03:40;-0.80;81.70
51878;SHT31;37911;51.526;11.536;2023-12-04T15:07:18;-0.81;81.74
51878;SHT31;37911;51.526;11.536;2023-12-04T15:10:43;-0.74;81.16
51878;SHT31;37911;51.526;11.536;2023-12-04T15:13:58;-0.80;81.53
51878;SHT31;37911;51.526;11.536;2023-12-04T15:17:13;-0.84;80.95
51878;SHT31;37911;51.526;11.536;2023-12-04T15:20:18;-0.81;81.07
51878;SHT31;37911;51.526;11.536;2023-12-04T15:23:33;-0.77;81.56
51878;SHT31;37911;51.526;11.536;2023-12-04T15:26:36;-0.67;80.66
51878;SHT31;37911;51.526;11.536;2023-12-04T15:29:40;-0.76;80.21
51878;SHT31;37911;51.526;11.536;2023-12-04T15:32:46;-0.81;80.98
51878;SHT31;37911;51.526;11.536;2023-12-04T15:35:47;-0.78;80.62
51878;SHT31;37911;51.526;11.536;2023-12-04T15:38:50;-0.71;81.01
51878;SHT31;37911;51.526;11.536;2023-12-04T15:41:51;-0.67;81.12
51878;SHT31;37911;51.526;11.536;2023-12-04T15:44:54;-0.74;81.06
51878;SHT31;37911;51.526;11.536;2023-12-04T15:47:58;-0.67;81.55
51878;SHT31;37911;51.526;11.536;2023-12-04T15:51:01;-0.60;81.63
51878;SHT31;37911;51.526;11.536;2023-12-04T15:54:03;-0.53;81.20
51878;SHT31;37911;51.526;11.536;2023-12-04T15:57:07;-0.57;81.21
51878;SHT31;37911;51.526;11.536;2023-12-04T16:00:12;-0.53;80.76
51878;SHT31;37911;51.526;11.536;2023-12-04T16:03:16;-0.52;80.70
51878;SHT31;37911;51.526;11.536;2023-12-04T16:06:19;-0.53;80.82
51878;SHT31;37911;51.526;11.536;2023-12-04T16:09:22;-0.50;81.55
51878;SHT31;37911;51.526;11.536;2023-12-04T16:12:25;-0.61;81.52
51878;SHT31;37911;51.526;11.536;2023-12-04T16:15:29;-0.57;81.33
51878;SHT31;37911;51.526;11.536;2023-12-04T16:18:35;-0.54;82.15
51878;SHT31;37911;51.526;11.536;2023-12-04T16:21:39;-0.53;81.67
51878;SHT31;37911;51.526;11.536;2023-12-04T16:24:43;-0.52;81.18
51878;SHT31;37911;51.526;11.536;2023-12-04T16:27:46;-0.47;80.81
51878;SHT31;37911;51.526;11.536;2023-12-04T16:30:51;-0.43;80.70
51878;SHT31;37911;51.526;11.536;2023-12-04T16:33:58;-0.60;81.42
51878;SHT31;37911;51.526;11.536;2023-12-04T16:37:02;-0.52;81.52
51878;SHT31;37911;51.526;11.536;2023-12-04T16:40:07;-0.53;81.51
51878;SHT31;37911;51.526;11.536;2023-12-04T16:43:10;-0.50;81.29
51878;SHT31;37911;51.526;11.536;2023-12-04T16:46:14;-0.53;81.03
51878;SHT31;37911;51.526;11.536;2023-12-04T16:49:20;-0.47;81.51
51878;SHT31;37911;51.526;11.536;2023-12-04T16:52:23;-0.47;81.17
51878;SHT31;37911;51.526;11.536;2023-12-04T16:55:27;-0.57;81.16
51878;SHT31;37911;51.526;11.536;2023-12-04T16:58:31;-0.43;81.24
51878;SHT31;37911;51.526;11.536;2023-12-04T17:01:34;-0.53;80.95
51878;SHT31;37911;51.526;11.536;2023-12-04T17:04:40;-0.43;81.39
51878;SHT31;37911;51.526;11.536;2023-12-04T17:07:43;-0.44;81.44
51878;SHT31;37911;51.526;11.536;2023-12-04T17:10:47;-0.44;81.24
51878;SHT31;37911;51.526;11.536;2023-12-04T17:13:50;-0.39;81.37
51878;SHT31;37911;51.526;11.536;2023-12-04T17:16:55;-0.05;81.14
51878;SHT31;37911;51.526;11.536;2023-12-04T17:20:01;0.33;81.71
51878;SHT31;37911;51.526;11.536;2023-12-04T17:23:04;0.55;79.39
51878;SHT31;37911;51.526;11.536;2023-12-04T17:26:07;0.84;77.35
51878;SHT31;37911;51.526;11.536;2023-12-04T17:29:11;0.49;76.97
51878;SHT31;37911;51.526;11.536;2023-12-04T17:32:14;0.38;77.80
51878;SHT31;37911;51.526;11.536;2023-12-04T17:35:20;0.32;78.14
51878;SHT31;37911;51.526;11.536;2023-12-04T17:38:24;0.28;78.72
51878;SHT31;37911;51.526;11.536;2023-12-04T17:41:27;0.11;78.29
51878;SHT31;37911;51.526;11.536;2023-12-04T17:44:31;0.22;79.20
51878;SHT31;37911;51.526;11.536;2023-12-04T17:47:34;0.45;78.88
51878;SHT31;37911;51.526;11.536;2023-12-04T17:50:40;0.66;77.92
51878;SHT31;37911;51.526;11.536;2023-12-04T17:53:43;0.72;76.93
51878;SHT31;37911;51.526;11.536;2023-12-04T17:56:48;0.59;76.94
51878;SHT31;37911;51.526;11.536;2023-12-04T17:59:52;0.30;77.18
51878;SHT31;37911;51.526;11.536;2023-12-04T18:02:56;0.52;77.25
51878;SHT31;37911;51.526;11.536;2023-12-04T18:06:02;0.33;77.15
51878;SHT31;37911;51.526;11.536;2023-12-04T18:09:07;0.09;77.31
51878;SHT31;37911;51.526;11.536;2023-12-04T18:12:11;-0.01;78.31
51878;SHT31;37911;51.526;11.536;2023-12-04T18:15:15;-0.20;79.53
51878;SHT31;37911;51.526;11.536;2023-12-04T18:18:18;-0.27;79.31
51878;SHT31;37911;51.526;11.536;2023-12-04T18:21:24;-0.27;79.96
51878;SHT31;37911;51.526;11.536;2023-12-04T18:24:27;-0.36;80.41
51878;SHT31;37911;51.526;11.536;2023-12-04T18:27:31;-0.40;80.72
51878;SHT31;37911;51.526;11.536;2023-12-04T18:30:35;-0.37;79.90
51878;SHT31;37911;51.526;11.536;2023-12-04T18:33:39;-0.36;80.66
51878;SHT31;37911;51.526;11.536;2023-12-04T18:36:46;-0.39;80.38
51878;SHT31;37911;51.526;11.536;2023-12-04T18:39:53;-0.40;80.73
51878;SHT31;37911;51.526;11.536;2023-12-04T18:42:56;-0.33;80.89
51878;SHT31;37911;51.526;11.536;2023-12-04T18:46:01;-0.33;81.30
51878;SHT31;37911;51.526;11.536;2023-12-04T18:49:05;-0.26;80.72
51878;SHT31;37911;51.526;11.536;2023-12-04T18:52:13;-0.36;80.82
51878;SHT31;37911;51.526;11.536;2023-12-04T18:55:17;-0.47;81.13
51878;SHT31;37911;51.526;11.536;2023-12-04T18:58:20;-0.57;81.50
51878;SHT31;37911;51.526;11.536;2023-12-04T19:01:24;-0.52;82.12
51878;SHT31;37911;51.526;11.536;2023-12-04T19:04:27;-0.52;82.46
51878;SHT31;37911;51.526;11.536;2023-12-04T19:07:37;-0.60;82.18
51878;SHT31;37911;51.526;11.536;2023-12-04T19:10:40;-0.56;82.41